createdAt,value
2022-07-26T00:00:10.722Z,18.96
2022-07-26T00:02:39.487Z,18.96
2022-07-26T00:05:16.832Z,19.02
2022-07-26T00:07:47.839Z,18.97
2022-07-26T00:10:16.256Z,18.96
2022-07-26T00:12:44.159Z,18.93
2022-07-26T00:15:13.231Z,18.93
2022-07-26T00:17:41.097Z,18.93
2022-07-26T00:20:09.206Z,18.91
2022-07-26T00:22:36.931Z,18.84
2022-07-26T00:25:10.193Z,18.78
2022-07-26T00:27:39.064Z,18.77
2022-07-26T00:30:12.031Z,18.79
2022-07-26T00:32:40.171Z,18.79
2022-07-26T00:35:09.533Z,18.82
2022-07-26T00:37:38.053Z,18.83
2022-07-26T00:40:06.888Z,18.73
2022-07-26T00:42:37.296Z,18.70
2022-07-26T00:45:07.039Z,18.69
2022-07-26T00:47:36.164Z,18.70
2022-07-26T00:50:06.978Z,18.69
2022-07-26T00:52:34.546Z,18.68
2022-07-26T00:55:02.240Z,18.70
2022-07-26T00:57:29.890Z,18.69
2022-07-26T01:00:01.710Z,18.71
2022-07-26T01:02:28.943Z,18.61
2022-07-26T01:04:56.275Z,18.56
2022-07-26T01:07:24.108Z,18.59
2022-07-26T01:09:51.368Z,18.58
2022-07-26T01:12:18.591Z,18.51
2022-07-26T01:14:46.587Z,18.50
2022-07-26T01:17:15.519Z,18.47
2022-07-26T01:19:43.186Z,18.39
2022-07-26T01:22:14.310Z,18.38
2022-07-26T01:24:42.666Z,18.34
2022-07-26T01:27:10.186Z,18.37
2022-07-26T01:29:40.636Z,18.35
2022-07-26T01:32:08.885Z,18.26
2022-07-26T01:34:36.352Z,18.27
2022-07-26T01:37:04.174Z,18.25
2022-07-26T01:39:31.483Z,18.22
2022-07-26T01:41:59.638Z,18.18
2022-07-26T01:44:26.990Z,18.21
2022-07-26T01:46:54.240Z,18.18
2022-07-26T01:49:21.596Z,18.13
2022-07-26T01:51:48.976Z,18.11
2022-07-26T01:54:16.400Z,18.09
2022-07-26T01:56:51.741Z,18.03
2022-07-26T01:59:19.179Z,18.03
2022-07-26T02:01:46.281Z,18.01
2022-07-26T02:04:33.526Z,17.93
2022-07-26T02:07:00.857Z,17.92
2022-07-26T02:09:39.535Z,17.88
2022-07-26T02:12:07.431Z,17.89
2022-07-26T02:14:34.512Z,17.88
2022-07-26T02:17:01.805Z,17.91
2022-07-26T02:19:30.137Z,17.93
2022-07-26T02:21:57.793Z,17.89
2022-07-26T02:24:27.536Z,17.89
2022-07-26T02:26:56.315Z,17.88
2022-07-26T02:29:24.770Z,17.89
2022-07-26T02:32:00.165Z,17.88
2022-07-26T02:34:29.905Z,17.87
2022-07-26T02:36:59.974Z,17.81
2022-07-26T02:39:27.891Z,17.82
2022-07-26T02:42:00.383Z,17.76
2022-07-26T02:44:28.860Z,17.76
2022-07-26T02:46:56.062Z,17.78
2022-07-26T02:49:23.880Z,17.75
2022-07-26T02:51:52.522Z,17.70
2022-07-26T02:54:19.891Z,17.73
2022-07-26T02:56:47.045Z,17.68
2022-07-26T02:59:14.117Z,17.71
2022-07-26T03:01:41.158Z,17.66
2022-07-26T03:04:08.815Z,17.65
2022-07-26T03:06:35.941Z,17.65
2022-07-26T03:09:03.683Z,17.62
2022-07-26T03:11:45.847Z,17.64
2022-07-26T03:14:12.983Z,17.66
2022-07-26T03:16:45.500Z,17.68
2022-07-26T03:19:12.515Z,17.69
2022-07-26T03:21:39.751Z,17.69
2022-07-26T03:24:07.535Z,17.68
2022-07-26T03:26:34.808Z,17.68
2022-07-26T03:29:01.917Z,17.69
2022-07-26T03:31:29.055Z,17.67
2022-07-26T03:34:04.061Z,17.69
2022-07-26T03:36:31.341Z,17.73
2022-07-26T03:38:58.536Z,17.75
2022-07-26T03:41:25.584Z,17.80
2022-07-26T03:43:52.671Z,17.80
2022-07-26T03:46:19.847Z,17.76
2022-07-26T03:48:46.901Z,17.79
2022-07-26T03:51:14.131Z,17.83
2022-07-26T03:53:41.241Z,17.85
2022-07-26T03:56:26.822Z,17.87
2022-07-26T03:58:53.983Z,17.88
2022-07-26T04:01:21.704Z,17.92
2022-07-26T04:03:48.569Z,17.95
2022-07-26T04:06:16.600Z,17.96
2022-07-26T04:08:44.689Z,17.97
2022-07-26T04:11:11.818Z,18.02
2022-07-26T04:13:38.963Z,18.16
2022-07-26T04:16:06.597Z,18.22
2022-07-26T04:18:33.851Z,18.30
2022-07-26T04:21:00.990Z,18.55
2022-07-26T04:23:28.311Z,18.79
2022-07-26T04:25:55.760Z,19.01
2022-07-26T04:28:22.970Z,19.25
2022-07-26T04:30:50.439Z,19.45
2022-07-26T04:33:17.492Z,19.69
2022-07-26T04:35:44.602Z,19.97
2022-07-26T04:38:11.792Z,20.24
2022-07-26T04:40:40.383Z,20.53
2022-07-26T04:43:10.093Z,20.84
2022-07-26T04:45:42.565Z,21.16
2022-07-26T04:48:09.861Z,21.49
2022-07-26T04:50:37.073Z,21.70
2022-07-26T04:53:04.577Z,22.02
2022-07-26T04:55:32.054Z,22.32
2022-07-26T04:57:59.831Z,22.65
2022-07-26T05:00:26.951Z,22.96
2022-07-26T05:02:59.884Z,23.23
2022-07-26T05:05:29.654Z,23.52
2022-07-26T05:07:59.397Z,23.83
2022-07-26T05:10:33.692Z,24.24
2022-07-26T05:13:01.186Z,24.60
2022-07-26T05:15:35.003Z,24.92
2022-07-26T05:18:13.614Z,25.23
2022-07-26T05:20:41.317Z,25.43
2022-07-26T05:23:08.562Z,25.61
2022-07-26T05:25:37.253Z,25.96
2022-07-26T05:28:04.701Z,26.12
2022-07-26T05:30:34.298Z,26.39
2022-07-26T05:33:01.610Z,26.53
2022-07-26T05:35:28.664Z,26.69
2022-07-26T05:37:55.913Z,26.86
2022-07-26T05:40:25.126Z,27.11
2022-07-26T05:42:52.159Z,27.36
2022-07-26T05:45:19.406Z,27.62
2022-07-26T05:47:49.499Z,27.89
2022-07-26T05:50:16.665Z,28.07
2022-07-26T05:52:44.129Z,28.32
2022-07-26T05:55:11.094Z,28.56
2022-07-26T05:57:41.879Z,28.76
2022-07-26T06:00:12.250Z,29.03
2022-07-26T06:02:39.679Z,29.30
2022-07-26T06:05:07.831Z,29.54
2022-07-26T06:07:34.930Z,29.75
2022-07-26T06:10:01.913Z,30.00
2022-07-26T06:12:28.943Z,30.18
2022-07-26T06:14:56.476Z,30.26
2022-07-26T06:17:23.580Z,30.31
2022-07-26T06:19:50.813Z,30.52
2022-07-26T06:22:17.842Z,30.80
2022-07-26T06:24:44.925Z,31.13
2022-07-26T06:27:12.441Z,31.32
2022-07-26T06:29:40.730Z,31.54
2022-07-26T06:32:07.872Z,31.80
2022-07-26T06:34:35.126Z,31.92
2022-07-26T06:37:02.208Z,31.91
2022-07-26T06:39:29.388Z,32.18
2022-07-26T06:41:56.443Z,32.29
2022-07-26T06:44:23.463Z,32.34
2022-07-26T06:46:50.582Z,32.23
2022-07-26T06:49:22.044Z,32.39
2022-07-26T06:51:49.862Z,32.35
2022-07-26T06:54:17.122Z,32.50
2022-07-26T06:56:44.021Z,32.52
2022-07-26T06:59:11.162Z,32.50
2022-07-26T07:01:57.714Z,32.78
2022-07-26T07:04:25.128Z,32.88
2022-07-26T07:06:52.339Z,32.81
2022-07-26T07:09:19.886Z,32.90
2022-07-26T07:11:51.856Z,33.03
2022-07-26T07:14:28.591Z,33.32
2022-07-26T07:16:57.083Z,33.50
2022-07-26T07:19:24.585Z,33.59
2022-07-26T07:21:52.466Z,33.67
2022-07-26T07:24:23.679Z,33.65
2022-07-26T07:26:51.139Z,33.83
2022-07-26T07:29:21.075Z,33.89
2022-07-26T07:31:49.750Z,33.85
2022-07-26T07:34:23.979Z,33.91
2022-07-26T07:36:51.740Z,34.02
2022-07-26T07:39:27.313Z,33.93
2022-07-26T07:42:01.841Z,34.06
2022-07-26T07:44:28.942Z,34.38
2022-07-26T07:46:56.025Z,34.49
2022-07-26T07:49:23.603Z,34.57
2022-07-26T07:51:50.740Z,34.70
2022-07-26T07:54:18.523Z,34.92
2022-07-26T07:56:45.616Z,35.08
2022-07-26T07:59:13.081Z,35.21
2022-07-26T08:01:41.167Z,35.23
2022-07-26T08:04:09.607Z,35.33
2022-07-26T08:06:37.205Z,35.60
2022-07-26T08:09:06.422Z,35.97
2022-07-26T08:11:34.292Z,36.22
2022-07-26T08:14:02.321Z,36.39
2022-07-26T08:16:29.598Z,36.54
2022-07-26T08:18:57.346Z,36.53
2022-07-26T08:21:28.109Z,36.53
2022-07-26T08:23:57.110Z,36.50
2022-07-26T08:26:24.736Z,36.37
2022-07-26T08:29:09.821Z,36.12
2022-07-26T08:31:37.249Z,36.02
2022-07-26T08:34:04.556Z,36.07
2022-07-26T08:36:32.972Z,36.11
2022-07-26T08:39:01.600Z,36.38
2022-07-26T08:41:29.619Z,36.50
2022-07-26T08:44:05.514Z,36.53
2022-07-26T08:46:36.263Z,36.72
2022-07-26T08:49:03.846Z,36.88
2022-07-26T08:51:31.810Z,36.80
2022-07-26T08:54:06.121Z,36.80
2022-07-26T08:56:41.080Z,36.70
2022-07-26T08:59:21.224Z,36.65
2022-07-26T09:02:06.927Z,36.80
2022-07-26T09:04:43.581Z,37.07
2022-07-26T09:07:16.759Z,37.21
2022-07-26T09:10:00.119Z,37.09
2022-07-26T09:12:29.925Z,36.90
2022-07-26T09:15:00.320Z,36.55
2022-07-26T09:17:39.887Z,36.54
2022-07-26T09:20:15.983Z,36.81
2022-07-26T09:23:05.375Z,37.26
2022-07-26T09:25:41.295Z,37.24
2022-07-26T09:28:23.226Z,37.04
2022-07-26T09:31:06.491Z,36.93
2022-07-26T09:33:47.610Z,36.86
2022-07-26T09:36:16.310Z,36.72
2022-07-26T09:38:44.665Z,36.69
2022-07-26T09:41:27.365Z,36.82
2022-07-26T09:43:56.717Z,36.67
2022-07-26T09:46:26.445Z,36.65
2022-07-26T09:49:11.938Z,36.81
2022-07-26T09:51:49.122Z,36.63
2022-07-26T09:54:29.244Z,36.68
2022-07-26T09:56:56.936Z,37.05
2022-07-26T09:59:25.555Z,37.37
2022-07-26T10:01:55.129Z,37.44
2022-07-26T10:04:22.981Z,37.05
2022-07-26T10:06:53.309Z,36.49
2022-07-26T10:09:23.153Z,36.15
2022-07-26T10:12:00.900Z,36.08
2022-07-26T10:14:38.321Z,36.38
2022-07-26T10:17:29.210Z,36.31
2022-07-26T10:20:10.715Z,36.42
2022-07-26T10:22:47.231Z,36.47
2022-07-26T10:25:20.464Z,36.05
2022-07-26T10:28:00.820Z,35.56
2022-07-26T10:30:34.916Z,35.59
2022-07-26T10:33:16.157Z,35.69
2022-07-26T10:35:43.815Z,35.46
2022-07-26T10:38:24.749Z,34.90
2022-07-26T10:40:59.015Z,34.90
2022-07-26T10:43:43.979Z,35.30
2022-07-26T10:46:17.227Z,35.41
2022-07-26T10:49:06.680Z,35.32
2022-07-26T10:51:41.707Z,35.44
2022-07-26T10:54:12.414Z,35.72
2022-07-26T10:56:43.158Z,35.94
2022-07-26T10:59:10.438Z,36.27
2022-07-26T11:01:40.201Z,36.55
2022-07-26T11:04:21.854Z,36.82
2022-07-26T11:06:49.281Z,36.77
2022-07-26T11:09:19.041Z,36.88
2022-07-26T11:11:48.973Z,37.03
2022-07-26T11:14:18.221Z,37.36
2022-07-26T11:16:50.700Z,37.45
2022-07-26T11:19:26.245Z,37.55
2022-07-26T11:22:01.128Z,37.80
2022-07-26T11:24:29.464Z,37.83
2022-07-26T11:27:02.562Z,37.99
2022-07-26T11:29:39.000Z,37.74
2022-07-26T11:32:22.467Z,37.32
2022-07-26T11:35:00.786Z,37.15
2022-07-26T11:37:28.146Z,36.81
2022-07-26T11:39:56.029Z,36.40
2022-07-26T11:42:23.239Z,36.09
2022-07-26T11:44:51.104Z,35.90
2022-07-26T11:47:20.526Z,36.07
2022-07-26T11:50:00.865Z,36.19
2022-07-26T11:52:36.483Z,35.93
2022-07-26T11:55:03.694Z,35.99
2022-07-26T11:57:32.387Z,36.18
2022-07-26T12:00:00.902Z,36.44
2022-07-26T12:02:30.761Z,36.46
2022-07-26T12:05:19.886Z,36.47
2022-07-26T12:07:57.335Z,36.56
2022-07-26T12:10:25.224Z,36.72
2022-07-26T12:13:07.766Z,36.73
2022-07-26T12:15:51.296Z,36.81
2022-07-26T12:18:27.341Z,37.08
2022-07-26T12:21:04.131Z,37.33
2022-07-26T12:23:46.553Z,37.57
2022-07-26T12:26:23.858Z,37.65
2022-07-26T12:28:57.052Z,37.56
2022-07-26T12:31:29.510Z,37.55
2022-07-26T12:33:57.051Z,37.63
2022-07-26T12:36:27.396Z,37.84
2022-07-26T12:39:00.965Z,37.90
2022-07-26T12:41:40.204Z,37.63
2022-07-26T12:44:12.161Z,37.42
2022-07-26T12:46:39.966Z,37.56
2022-07-26T12:49:07.389Z,37.62
2022-07-26T12:51:35.010Z,37.82
2022-07-26T12:54:06.726Z,37.87
2022-07-26T12:56:34.209Z,37.78
2022-07-26T12:59:01.832Z,37.64
2022-07-26T13:01:30.716Z,37.49
2022-07-26T13:03:58.453Z,37.28
2022-07-26T13:06:26.041Z,37.59
2022-07-26T13:08:53.869Z,37.99
2022-07-26T13:11:21.197Z,38.27
2022-07-26T13:13:49.832Z,38.35
2022-07-26T13:16:17.254Z,38.40
2022-07-26T13:18:44.324Z,38.54
2022-07-26T13:21:11.859Z,38.63
2022-07-26T13:23:39.212Z,38.92
2022-07-26T13:26:09.084Z,39.08
2022-07-26T13:28:36.936Z,39.02
2022-07-26T13:31:04.435Z,38.98
2022-07-26T13:33:33.119Z,38.79
2022-07-26T13:36:00.503Z,38.70
2022-07-26T13:38:28.620Z,38.56
2022-07-26T13:40:56.812Z,38.43
2022-07-26T13:43:24.528Z,38.45
2022-07-26T13:45:51.914Z,38.49
2022-07-26T13:48:18.891Z,38.33
2022-07-26T13:50:46.530Z,38.22
2022-07-26T13:53:14.025Z,37.99
2022-07-26T13:55:41.596Z,37.92
2022-07-26T13:58:11.826Z,37.90
2022-07-26T14:00:40.615Z,37.54
2022-07-26T14:03:08.145Z,37.37
2022-07-26T14:05:35.667Z,37.51
2022-07-26T14:08:02.727Z,37.66
2022-07-26T14:10:30.062Z,37.81
2022-07-26T14:12:57.216Z,37.96
2022-07-26T14:15:24.658Z,37.82
2022-07-26T14:17:52.924Z,37.86
2022-07-26T14:20:21.273Z,37.70
2022-07-26T14:22:48.767Z,37.43
2022-07-26T14:25:15.870Z,37.36
2022-07-26T14:27:42.987Z,37.35
2022-07-26T14:30:10.867Z,37.34
2022-07-26T14:32:38.270Z,37.45
2022-07-26T14:35:09.003Z,37.38
2022-07-26T14:37:43.977Z,37.50
2022-07-26T14:40:14.930Z,37.59
2022-07-26T14:42:42.131Z,37.59
2022-07-26T14:45:10.276Z,37.61
2022-07-26T14:47:38.281Z,37.60
2022-07-26T14:50:08.057Z,37.65
2022-07-26T14:52:44.366Z,37.64
2022-07-26T14:55:12.253Z,37.57
2022-07-26T14:57:40.373Z,37.44
2022-07-26T15:00:12.963Z,37.37
2022-07-26T15:02:45.895Z,37.36
2022-07-26T15:05:14.866Z,37.20
2022-07-26T15:07:42.879Z,36.87
2022-07-26T15:10:12.486Z,36.63
2022-07-26T15:12:40.002Z,36.29
2022-07-26T15:15:08.881Z,36.15
2022-07-26T15:17:36.263Z,36.06
2022-07-26T15:20:04.266Z,36.07
2022-07-26T15:22:31.446Z,36.20
2022-07-26T15:24:58.665Z,36.19
2022-07-26T15:27:25.748Z,36.32
2022-07-26T15:29:52.840Z,36.50
2022-07-26T15:32:21.598Z,36.50
2022-07-26T15:34:49.061Z,36.52
2022-07-26T15:37:16.319Z,36.67
2022-07-26T15:39:43.433Z,36.62
2022-07-26T15:42:10.708Z,36.52
2022-07-26T15:44:44.693Z,36.54
2022-07-26T15:47:15.537Z,36.59
2022-07-26T15:49:59.985Z,36.56
2022-07-26T15:52:27.131Z,36.59
2022-07-26T15:54:54.517Z,36.40
2022-07-26T15:57:21.635Z,36.08
2022-07-26T15:59:49.014Z,35.94
2022-07-26T16:02:16.228Z,35.77
2022-07-26T16:04:43.367Z,35.80
2022-07-26T16:07:10.365Z,35.67
2022-07-26T16:09:37.512Z,35.49
2022-07-26T16:12:06.243Z,35.32
2022-07-26T16:14:33.485Z,35.13
2022-07-26T16:17:02.195Z,34.99
2022-07-26T16:19:29.573Z,34.78
2022-07-26T16:21:57.035Z,34.62
2022-07-26T16:24:25.787Z,34.43
2022-07-26T16:26:53.420Z,34.23
2022-07-26T16:29:20.806Z,34.04
2022-07-26T16:31:48.350Z,33.90
2022-07-26T16:34:15.813Z,33.72
2022-07-26T16:36:42.945Z,33.51
2022-07-26T16:39:10.422Z,33.33
2022-07-26T16:41:38.169Z,33.10
2022-07-26T16:44:05.906Z,32.90
2022-07-26T16:46:32.915Z,32.69
2022-07-26T16:49:00.225Z,32.44
2022-07-26T16:51:27.621Z,32.17
2022-07-26T16:53:55.632Z,31.97
2022-07-26T16:56:28.837Z,31.79
2022-07-26T16:58:56.219Z,31.61
2022-07-26T17:01:23.980Z,31.43
2022-07-26T17:03:51.129Z,31.31
2022-07-26T17:06:18.606Z,31.11
2022-07-26T17:11:33.563Z,30.74
2022-07-26T17:14:13.851Z,30.63
2022-07-26T17:16:44.443Z,30.45
2022-07-26T17:19:24.358Z,30.24
2022-07-26T17:21:56.031Z,30.02
2022-07-26T17:24:23.439Z,29.83
2022-07-26T17:26:50.588Z,29.66
2022-07-26T17:29:17.503Z,29.49
2022-07-26T17:31:44.291Z,29.26
2022-07-26T17:34:11.570Z,29.12
2022-07-26T17:36:43.095Z,28.93
2022-07-26T17:39:23.329Z,28.82
2022-07-26T17:42:20.684Z,28.68
2022-07-26T17:44:49.837Z,28.52
2022-07-26T17:47:29.371Z,28.45
2022-07-26T17:52:57.678Z,28.01
2022-07-26T17:55:25.143Z,27.88
2022-07-26T17:57:54.843Z,27.79
2022-07-26T18:00:27.011Z,27.67
2022-07-26T18:03:00.357Z,27.56
2022-07-26T18:05:34.980Z,27.37
2022-07-26T18:08:04.655Z,27.27
2022-07-26T18:10:31.891Z,27.15
2022-07-26T18:12:58.936Z,26.98
2022-07-26T18:15:28.392Z,26.86
2022-07-26T18:17:56.192Z,26.82
2022-07-26T18:20:24.209Z,26.74
2022-07-26T18:22:54.343Z,26.65
2022-07-26T18:25:22.348Z,26.52
2022-07-26T18:27:50.347Z,26.38
2022-07-26T18:30:24.914Z,26.26
2022-07-26T18:32:54.633Z,26.15
2022-07-26T18:35:22.511Z,26.08
2022-07-26T18:37:50.885Z,26.16
2022-07-26T18:40:18.397Z,25.97
2022-07-26T18:42:46.445Z,25.91
2022-07-26T18:45:15.504Z,25.80
2022-07-26T18:47:43.280Z,25.64
2022-07-26T18:50:16.986Z,25.52
2022-07-26T18:52:52.524Z,25.42
2022-07-26T18:55:21.179Z,25.36
2022-07-26T18:57:48.841Z,25.28
2022-07-26T19:00:24.176Z,25.14
2022-07-26T19:02:53.466Z,25.12
2022-07-26T19:05:23.035Z,25.11
2022-07-26T19:07:51.291Z,25.00
2022-07-26T19:10:28.680Z,24.94
2022-07-26T19:12:55.956Z,24.89
2022-07-26T19:15:23.690Z,24.84
2022-07-26T19:17:51.012Z,24.74
2022-07-26T19:20:18.335Z,24.69
2022-07-26T19:22:47.665Z,24.64
2022-07-26T19:25:16.729Z,24.53
2022-07-26T19:27:44.225Z,24.47
2022-07-26T19:30:11.802Z,24.39
2022-07-26T19:32:39.939Z,24.35
2022-07-26T19:35:08.127Z,24.29
2022-07-26T19:37:35.690Z,24.27
2022-07-26T19:40:04.237Z,24.17
2022-07-26T19:42:32.518Z,24.02
2022-07-26T19:45:00.675Z,23.98
2022-07-26T19:47:30.116Z,23.91
2022-07-26T19:49:57.985Z,23.85
2022-07-26T19:52:25.654Z,23.86
2022-07-26T19:54:53.200Z,23.85
2022-07-26T19:57:20.394Z,23.81
2022-07-26T19:59:47.939Z,23.74
2022-07-26T20:02:16.379Z,23.64
2022-07-26T20:04:46.262Z,23.61
2022-07-26T20:07:21.648Z,23.55
2022-07-26T20:09:50.427Z,23.46
2022-07-26T20:12:18.779Z,23.32
2022-07-26T20:14:46.443Z,23.25
2022-07-26T20:17:14.951Z,23.23
2022-07-26T20:19:42.326Z,23.15
2022-07-26T20:22:09.597Z,23.00
2022-07-26T20:24:38.523Z,22.87
2022-07-26T20:27:08.613Z,22.77
2022-07-26T20:29:36.575Z,22.76
2022-07-26T20:32:04.225Z,22.73
2022-07-26T20:34:31.608Z,22.71
2022-07-26T20:36:58.955Z,22.67
2022-07-26T20:39:28.213Z,22.60
2022-07-26T20:41:55.695Z,22.48
2022-07-26T20:44:28.213Z,22.49
2022-07-26T20:46:56.049Z,22.37
2022-07-26T20:49:23.843Z,22.31
2022-07-26T20:51:51.680Z,22.19
2022-07-26T20:54:19.965Z,22.19
2022-07-26T20:56:47.452Z,22.17
2022-07-26T20:59:14.942Z,22.11
2022-07-26T21:01:44.120Z,22.11
2022-07-26T21:04:12.389Z,22.17
2022-07-26T21:06:40.421Z,22.08
2022-07-26T21:09:09.737Z,22.10
2022-07-26T21:11:38.311Z,22.09
2022-07-26T21:14:20.354Z,22.10
2022-07-26T21:16:50.787Z,22.02
2022-07-26T21:19:18.052Z,21.95
2022-07-26T21:21:47.533Z,21.90
2022-07-26T21:24:14.985Z,21.86
2022-07-26T21:26:42.290Z,21.87
2022-07-26T21:29:13.167Z,21.90
2022-07-26T21:31:40.791Z,21.83
2022-07-26T21:34:08.091Z,21.81
2022-07-26T21:36:39.259Z,21.76
2022-07-26T21:39:07.820Z,21.74
2022-07-26T21:41:35.934Z,21.65
2022-07-26T21:44:04.215Z,21.63
2022-07-26T21:46:31.982Z,21.66
2022-07-26T21:51:43.320Z,21.53
2022-07-26T21:54:10.549Z,21.56
2022-07-26T21:56:41.088Z,21.48
2022-07-26T21:59:11.350Z,21.38
2022-07-26T22:01:41.654Z,21.33
2022-07-26T22:04:10.656Z,21.33
2022-07-26T22:06:41.202Z,21.26
2022-07-26T22:09:08.699Z,21.23
2022-07-26T22:11:39.875Z,21.16
2022-07-26T22:14:08.846Z,21.11
2022-07-26T22:16:36.636Z,21.12
2022-07-26T22:19:03.970Z,21.12
2022-07-26T22:21:31.406Z,21.09
2022-07-26T22:23:58.767Z,21.09
2022-07-26T22:26:31.399Z,21.07
2022-07-26T22:29:00.110Z,21.05
2022-07-26T22:31:27.485Z,20.84
2022-07-26T22:33:54.846Z,20.90
2022-07-26T22:36:22.081Z,20.82
2022-07-26T22:38:49.345Z,20.75
2022-07-26T22:41:16.634Z,20.76
2022-07-26T22:43:46.448Z,20.71
2022-07-26T22:46:13.846Z,20.68
2022-07-26T22:48:44.541Z,20.67
2022-07-26T22:51:15.378Z,20.70
2022-07-26T22:53:42.557Z,20.65
2022-07-26T22:56:10.122Z,20.67
2022-07-26T22:58:38.779Z,20.62
2022-07-26T23:01:06.233Z,20.62
2022-07-26T23:03:33.345Z,20.54
2022-07-26T23:06:03.706Z,20.51
2022-07-26T23:08:46.990Z,20.51
2022-07-26T23:11:14.842Z,20.47
2022-07-26T23:13:42.192Z,20.42
2022-07-26T23:16:09.647Z,20.34
2022-07-26T23:18:37.028Z,20.32
2022-07-26T23:21:04.560Z,20.33
2022-07-26T23:23:32.043Z,20.32
2022-07-26T23:26:00.533Z,20.27
2022-07-26T23:28:37.293Z,20.15
2022-07-26T23:31:11.235Z,20.07
2022-07-26T23:33:53.490Z,19.98
2022-07-26T23:36:26.685Z,19.90
2022-07-26T23:38:55.881Z,19.89
2022-07-26T23:41:23.788Z,19.90
2022-07-26T23:43:51.618Z,19.90
2022-07-26T23:46:19.121Z,19.93
2022-07-26T23:48:46.763Z,19.96
2022-07-26T23:51:14.389Z,19.97
2022-07-26T23:53:41.638Z,19.86
2022-07-26T23:56:08.972Z,19.85
2022-07-26T23:58:36.198Z,19.86
